Etusivu
METAR-TAF:

METAR-TAF

Lentoasemat :

Auburn, Alabama, Yhdysvallat

Leveyspiiri: 32-37N, Pituuspiiri: 085-26W, korkeus merenpinnasta: 236 m

Tämänhetkinen sää

Tämä raportti tehtiin 43 minuuttia sitten, kello 11.56 UTC
Tuuli 5 kn idästä/kaakosta
Lämpötila 8°C
Kosteus 76%
Ilmanpaine 1018 hPa
Näkyvyys: 16.1 km
Pilvistä 2500 ft:n korkeudessa
heikkoa sadetta

METAR: KAUO 241156Z AUTO 11005KT 10SM -RA OVC025 08/04 A3005 RMK AO2 SLP205 P0001 60001 70001 T00830044 10106 20083 58005

Aika: 06:39 (12:39 UTC)


TAF: puuttuu

Säähavainnot ja -ennusteet yli 4000 lentoasemalta (METAR- ja TAF-raportit).

Käytössä olevat sääasemat on merkitty karttaan keltaisilla ja punaisilla pisteillä.

Aseta hiiri pisteen päälle nähdäksesi sääaseman nimen.

Klikkaa sitten nähdäksesi säähavainnot ja -ennusteet.

Kartan vaihtaminen: klikkaa mustalla rastilla varustettuja vihreitä pisteitä, niin voit zoomata sisään; viivalla varustettua vihreää pistettä, niin voit zoomata ulos tai vihreitä nuolia, niin pääset viereisille kartoille.


METAR-TAF: